createdAt,value
2019-05-10T00:00:31.814Z,0.90
2019-05-10T00:03:19.538Z,0.70
2019-05-10T00:06:07.189Z,0.60
2019-05-10T00:08:48.007Z,0.70
2019-05-10T00:11:31.271Z,0.77
2019-05-10T00:14:09.934Z,0.60
2019-05-10T00:16:39.841Z,0.80
2019-05-10T00:19:09.968Z,1.20
2019-05-10T00:21:39.818Z,0.70
2019-05-10T00:24:09.761Z,0.80
2019-05-10T00:26:39.688Z,0.97
2019-05-10T00:29:09.617Z,0.80
2019-05-10T00:31:39.578Z,0.70
2019-05-10T00:34:09.642Z,0.90
2019-05-10T00:36:39.544Z,0.70
2019-05-10T00:39:09.479Z,0.70
2019-05-10T00:41:39.787Z,0.80
2019-05-10T00:44:09.727Z,0.97
2019-05-10T00:46:39.651Z,0.90
2019-05-10T00:49:09.601Z,0.80
2019-05-10T00:51:39.523Z,0.77
2019-05-10T00:54:09.545Z,0.90
2019-05-10T00:56:39.458Z,0.80
2019-05-10T00:59:09.466Z,0.57
2019-05-10T01:01:39.341Z,0.83
2019-05-10T01:04:09.213Z,0.80
2019-05-10T01:06:39.029Z,0.90
2019-05-10T01:09:08.319Z,0.60
2019-05-10T01:11:37.522Z,0.57
2019-05-10T01:14:07.403Z,0.80
2019-05-10T01:16:37.590Z,1.00
2019-05-10T01:19:07.254Z,1.03
2019-05-10T01:21:37.126Z,1.07
2019-05-10T01:24:06.443Z,1.00
2019-05-10T01:26:36.317Z,0.90
2019-05-10T01:29:05.634Z,0.77
2019-05-10T01:31:35.370Z,0.80
2019-05-10T01:34:05.224Z,0.90
2019-05-10T01:36:35.294Z,1.00
2019-05-10T01:39:06.282Z,0.80
2019-05-10T01:41:36.270Z,1.37
2019-05-10T01:44:05.506Z,1.00
2019-05-10T01:46:35.276Z,0.90
2019-05-10T01:49:05.176Z,0.90
2019-05-10T01:51:35.114Z,0.87
2019-05-10T01:54:05.070Z,0.90
2019-05-10T01:56:34.979Z,0.80
2019-05-10T01:59:05.217Z,1.03
2019-05-10T02:01:35.178Z,1.00
2019-05-10T02:04:04.598Z,1.07
2019-05-10T02:06:33.839Z,0.90
2019-05-10T02:09:03.738Z,1.20
2019-05-10T02:11:33.085Z,0.80
2019-05-10T02:14:02.906Z,1.10
2019-05-10T02:16:32.857Z,0.80
2019-05-10T02:19:02.142Z,0.83
2019-05-10T02:21:31.457Z,1.03
2019-05-10T02:24:00.619Z,0.83
2019-05-10T02:26:30.482Z,0.90
2019-05-10T02:28:59.785Z,0.80
2019-05-10T02:31:30.698Z,1.27
2019-05-10T02:34:00.031Z,0.97
2019-05-10T02:36:29.992Z,1.20
2019-05-10T02:38:59.930Z,0.70
2019-05-10T02:41:30.017Z,0.97
2019-05-10T02:43:59.928Z,1.00
2019-05-10T02:46:29.264Z,1.33
2019-05-10T02:48:58.497Z,1.00
2019-05-10T02:51:27.926Z,1.20
2019-05-10T02:53:57.158Z,1.00
2019-05-10T02:56:31.015Z,1.20
2019-05-10T02:58:59.764Z,1.23
2019-05-10T03:01:31.184Z,1.13
2019-05-10T03:04:04.115Z,0.97
2019-05-10T03:06:36.483Z,0.83
2019-05-10T03:09:08.700Z,0.97
2019-05-10T03:11:47.793Z,1.10
2019-05-10T03:14:21.121Z,0.90
2019-05-10T03:16:52.123Z,1.00
2019-05-10T03:19:21.681Z,1.20
2019-05-10T03:22:02.127Z,0.97
2019-05-10T03:24:31.954Z,0.93
2019-05-10T03:27:01.879Z,1.03
2019-05-10T03:29:31.811Z,1.00
2019-05-10T03:32:01.811Z,1.10
2019-05-10T03:34:32.226Z,1.43
2019-05-10T03:37:01.660Z,1.10
2019-05-10T03:39:31.034Z,1.30
2019-05-10T03:42:00.877Z,1.10
2019-05-10T03:44:30.796Z,1.30
2019-05-10T03:47:01.128Z,1.10
2019-05-10T03:49:31.246Z,1.00
2019-05-10T03:52:00.561Z,1.10
2019-05-10T03:54:30.404Z,1.60
2019-05-10T03:57:11.771Z,1.20
2019-05-10T03:59:31.972Z,1.27
2019-05-10T04:02:01.937Z,1.10
2019-05-10T04:04:31.230Z,1.37
2019-05-10T04:07:01.128Z,1.27
2019-05-10T04:09:30.401Z,0.93
2019-05-10T04:12:00.369Z,1.53
2019-05-10T04:14:29.689Z,1.10
2019-05-10T04:16:59.533Z,1.67
2019-05-10T04:19:29.430Z,1.30
2019-05-10T04:21:59.271Z,1.13
2019-05-10T04:24:29.197Z,1.00
2019-05-10T04:26:59.104Z,1.07
2019-05-10T04:29:29.068Z,1.20
2019-05-10T04:31:58.998Z,0.90
2019-05-10T04:34:28.967Z,1.00
2019-05-10T04:36:58.871Z,1.37
2019-05-10T04:39:28.812Z,1.00
2019-05-10T04:41:58.743Z,1.13
2019-05-10T04:44:28.774Z,1.30
2019-05-10T04:46:58.693Z,1.27
2019-05-10T04:49:27.942Z,1.10
2019-05-10T04:51:57.843Z,1.10
2019-05-10T04:54:30.957Z,1.67
2019-05-10T04:57:01.151Z,1.10
2019-05-10T04:59:31.090Z,1.10
2019-05-10T05:02:01.042Z,1.50
2019-05-10T05:04:31.066Z,1.00
2019-05-10T05:07:01.294Z,1.20
2019-05-10T05:09:30.634Z,0.97
2019-05-10T05:12:00.500Z,1.00
2019-05-10T05:14:30.522Z,0.97
2019-05-10T05:16:59.871Z,1.10
2019-05-10T05:19:29.769Z,1.17
2019-05-10T05:21:59.718Z,1.00
2019-05-10T05:24:29.671Z,1.30
2019-05-10T05:26:59.000Z,1.10
2019-05-10T05:29:28.190Z,1.10
2019-05-10T05:32:00.947Z,1.17
2019-05-10T05:34:29.598Z,1.10
2019-05-10T05:36:58.984Z,1.90
2019-05-10T05:39:28.783Z,0.63
2019-05-10T05:41:58.780Z,1.10
2019-05-10T05:44:28.774Z,0.83
2019-05-10T05:46:58.082Z,1.20
2019-05-10T05:49:27.942Z,1.00
2019-05-10T05:51:57.502Z,0.87
2019-05-10T05:54:27.359Z,1.20
2019-05-10T05:56:57.294Z,1.07
2019-05-10T05:59:27.224Z,1.20
2019-05-10T06:02:00.901Z,1.20
2019-05-10T06:04:27.989Z,0.87
2019-05-10T06:06:59.047Z,1.13
2019-05-10T06:09:32.128Z,1.13
2019-05-10T06:12:00.315Z,0.80
2019-05-10T06:14:29.651Z,1.27
2019-05-10T06:16:58.876Z,1.00
2019-05-10T06:19:29.908Z,1.23
2019-05-10T06:22:04.750Z,1.10
2019-05-10T06:24:34.200Z,0.70
2019-05-10T06:27:03.370Z,0.80
2019-05-10T06:29:32.601Z,1.00
2019-05-10T06:32:02.363Z,1.10
2019-05-10T06:34:37.946Z,0.70
2019-05-10T06:37:03.165Z,1.00
2019-05-10T06:39:33.113Z,1.07
2019-05-10T06:42:03.066Z,1.27
2019-05-10T06:44:33.507Z,1.00
2019-05-10T06:47:08.147Z,1.00
2019-05-10T06:49:34.273Z,0.83
2019-05-10T06:52:04.201Z,1.07
2019-05-10T06:54:34.170Z,1.00
2019-05-10T06:57:03.485Z,1.20
2019-05-10T06:59:32.651Z,1.30
2019-05-10T07:02:01.899Z,0.93
2019-05-10T07:04:36.091Z,0.80
2019-05-10T07:07:02.589Z,0.93
2019-05-10T07:10:00.018Z,0.90
2019-05-10T07:12:02.800Z,0.73
2019-05-10T07:14:32.637Z,1.30
2019-05-10T07:17:04.413Z,0.80
2019-05-10T07:19:34.799Z,1.00
2019-05-10T07:22:05.191Z,0.80
2019-05-10T07:24:35.004Z,0.90
2019-05-10T07:27:05.853Z,1.00
2019-05-10T07:29:41.842Z,0.97
2019-05-10T07:32:07.563Z,0.87
2019-05-10T07:34:37.585Z,0.93
2019-05-10T07:37:07.901Z,0.80
2019-05-10T07:39:38.007Z,0.77
2019-05-10T07:42:09.061Z,1.03
2019-05-10T07:44:41.603Z,0.90
2019-05-10T07:47:10.173Z,1.00
2019-05-10T07:49:42.566Z,1.27
2019-05-10T07:52:11.821Z,1.00
2019-05-10T07:54:45.061Z,0.80
2019-05-10T07:57:12.293Z,1.10
2019-05-10T07:59:50.928Z,0.93
2019-05-10T08:02:14.898Z,1.00
2019-05-10T08:04:44.584Z,0.70
2019-05-10T08:07:14.450Z,0.80
2019-05-10T08:09:46.187Z,1.00
2019-05-10T08:12:15.327Z,0.70
2019-05-10T08:14:50.111Z,1.00
2019-05-10T08:17:16.217Z,1.00
2019-05-10T08:19:45.978Z,0.80
2019-05-10T08:22:16.211Z,1.00
2019-05-10T08:24:52.761Z,1.30
2019-05-10T08:27:17.890Z,0.67
2019-05-10T08:29:54.554Z,0.80
2019-05-10T08:32:19.362Z,1.00
2019-05-10T08:34:53.079Z,1.03
2019-05-10T08:37:31.097Z,0.80
2019-05-10T08:39:55.962Z,0.73
2019-05-10T08:42:38.021Z,0.93
2019-05-10T08:45:03.929Z,0.80
2019-05-10T08:47:27.770Z,0.60
2019-05-10T08:50:12.313Z,0.80
2019-05-10T08:52:31.710Z,0.77
2019-05-10T08:55:02.777Z,0.80
2019-05-10T09:00:38.304Z,0.60
2019-05-10T09:02:52.749Z,0.80
2019-05-10T09:05:28.823Z,0.83
2019-05-10T09:07:53.594Z,0.70
2019-05-10T09:10:23.734Z,0.70
2019-05-10T09:12:57.942Z,1.10
2019-05-10T09:15:25.805Z,1.00
2019-05-10T09:17:58.246Z,0.80
2019-05-10T09:20:27.306Z,0.80
2019-05-10T09:22:57.313Z,0.60
2019-05-10T09:25:30.936Z,0.70
2019-05-10T09:28:04.484Z,0.80
2019-05-10T09:30:36.001Z,0.83
2019-05-10T09:33:10.709Z,0.80
2019-05-10T09:35:39.027Z,0.80
2019-05-10T09:38:08.697Z,0.70
2019-05-10T09:40:42.595Z,0.67
2019-05-10T09:43:12.485Z,0.60
2019-05-10T09:45:42.471Z,1.13
2019-05-10T09:48:12.549Z,0.93
2019-05-10T09:50:47.116Z,0.80
2019-05-10T09:53:21.748Z,0.87
2019-05-10T09:55:55.036Z,0.80
2019-05-10T09:58:21.646Z,0.90
2019-05-10T10:00:48.637Z,1.50
2019-05-10T10:03:17.890Z,1.43
2019-05-10T10:05:48.265Z,0.83
2019-05-10T10:08:18.376Z,1.00
2019-05-10T10:10:48.504Z,0.70
2019-05-10T10:13:35.883Z,0.73
2019-05-10T10:15:51.927Z,0.97
2019-05-10T10:18:25.087Z,1.20
2019-05-10T10:20:51.881Z,0.90
2019-05-10T10:23:24.571Z,1.03
2019-05-10T10:25:52.913Z,1.10
2019-05-10T10:28:22.929Z,1.30
2019-05-10T10:30:58.930Z,1.07
2019-05-10T10:33:28.068Z,1.40
2019-05-10T10:35:56.469Z,1.50
2019-05-10T10:38:30.615Z,1.60
2019-05-10T10:40:58.019Z,1.60
2019-05-10T10:43:27.438Z,2.47
2019-05-10T10:45:57.650Z,1.80
2019-05-10T10:48:28.530Z,1.53
2019-05-10T10:50:58.593Z,1.60
2019-05-10T10:53:28.815Z,1.77
2019-05-10T10:56:03.595Z,1.60
2019-05-10T10:58:30.302Z,1.63
2019-05-10T11:01:00.521Z,1.67
2019-05-10T11:03:30.930Z,1.40
2019-05-10T11:06:01.923Z,1.90
2019-05-10T11:08:33.181Z,1.70
2019-05-10T11:11:03.734Z,1.60
2019-05-10T11:13:45.407Z,1.80
2019-05-10T11:16:13.640Z,2.17
2019-05-10T11:18:35.489Z,1.87
2019-05-10T11:21:04.670Z,1.23
2019-05-10T11:23:39.029Z,1.50
2019-05-10T11:26:06.160Z,1.10
2019-05-10T11:28:43.964Z,1.50
2019-05-10T11:31:07.037Z,1.50
2019-05-10T11:33:36.885Z,1.67
2019-05-10T11:36:08.646Z,1.20
2019-05-10T11:38:37.675Z,1.30
2019-05-10T11:41:13.606Z,1.30
2019-05-10T11:43:38.522Z,1.40
2019-05-10T11:46:08.280Z,1.03
2019-05-10T11:48:39.822Z,1.10
2019-05-10T11:51:12.350Z,0.97
2019-05-10T11:53:41.420Z,1.00
2019-05-10T11:56:14.113Z,0.90
2019-05-10T11:58:49.847Z,0.90
2019-05-10T12:01:18.996Z,1.10
2019-05-10T12:03:46.166Z,1.30
2019-05-10T12:06:16.098Z,1.03
2019-05-10T12:08:46.032Z,1.00
2019-05-10T12:13:47.490Z,1.00
2019-05-10T12:16:17.902Z,0.90
2019-05-10T12:21:21.783Z,0.60
2019-05-10T12:23:55.963Z,0.80
2019-05-10T12:26:05.229Z,1.10
2019-05-10T12:26:05.395Z,0.80
2019-05-10T12:28:59.406Z,0.63
2019-05-10T12:31:26.042Z,0.80
2019-05-10T12:34:02.491Z,0.97
2019-05-10T12:36:27.955Z,0.80
2019-05-10T12:38:58.963Z,0.70
2019-05-10T12:41:31.634Z,0.83
2019-05-10T12:44:04.180Z,0.90
2019-05-10T12:46:32.709Z,0.93
2019-05-10T12:49:04.870Z,0.77
2019-05-10T12:51:34.194Z,1.10
2019-05-10T12:54:04.114Z,0.90
2019-05-10T12:56:35.148Z,1.03
2019-05-10T12:59:05.624Z,1.07
2019-05-10T13:01:35.585Z,0.87
2019-05-10T13:04:13.424Z,0.73
2019-05-10T13:06:37.076Z,0.63
2019-05-10T13:09:07.873Z,0.80
2019-05-10T13:11:37.868Z,0.97
2019-05-10T13:14:09.741Z,0.60
2019-05-10T13:16:39.830Z,0.80
2019-05-10T13:19:14.215Z,0.87
2019-05-10T13:21:41.327Z,0.90
2019-05-10T13:24:11.245Z,0.70
2019-05-10T13:26:41.137Z,1.30
2019-05-10T13:29:11.105Z,0.80
2019-05-10T13:31:42.616Z,0.60
2019-05-10T13:34:12.625Z,0.90
2019-05-10T13:36:42.547Z,0.80
2019-05-10T13:39:12.950Z,1.00
2019-05-10T13:41:42.977Z,0.90
2019-05-10T13:44:12.903Z,0.80
2019-05-10T13:46:42.821Z,0.50
2019-05-10T13:49:12.859Z,0.63
2019-05-10T13:51:42.802Z,0.83
2019-05-10T13:54:12.725Z,0.60
2019-05-10T13:56:45.518Z,0.70
2019-05-10T13:59:17.786Z,1.10
2019-05-10T14:01:49.535Z,0.63
2019-05-10T14:04:18.529Z,0.70
2019-05-10T14:06:48.557Z,0.90
2019-05-10T14:09:20.925Z,0.90
2019-05-10T14:11:50.216Z,0.80
2019-05-10T14:14:26.095Z,0.83
2019-05-10T14:16:52.464Z,0.70
2019-05-10T14:19:23.305Z,0.70
2019-05-10T14:21:54.154Z,0.70
2019-05-10T14:24:24.132Z,0.77
2019-05-10T14:26:57.322Z,1.00
2019-05-10T14:29:33.956Z,0.80
2019-05-10T14:31:57.503Z,0.80
2019-05-10T14:34:26.801Z,0.97
2019-05-10T14:36:56.579Z,0.60
2019-05-10T14:39:26.514Z,0.73
2019-05-10T14:41:55.825Z,0.80
2019-05-10T14:44:25.106Z,0.90
2019-05-10T14:46:55.485Z,0.80
2019-05-10T14:49:25.228Z,0.90
2019-05-10T14:51:59.715Z,0.90
2019-05-10T14:54:41.521Z,0.70
2019-05-10T14:56:58.356Z,0.70
2019-05-10T14:59:28.650Z,0.83
2019-05-10T15:01:58.602Z,1.10
2019-05-10T15:04:44.450Z,0.90
2019-05-10T15:06:58.770Z,0.83
2019-05-10T15:09:27.961Z,1.00
2019-05-10T15:11:57.894Z,1.00
2019-05-10T15:14:27.855Z,0.80
2019-05-10T15:16:57.249Z,0.90
2019-05-10T15:19:30.958Z,1.00
2019-05-10T15:21:58.695Z,1.00
2019-05-10T15:24:28.029Z,0.93
2019-05-10T15:26:57.883Z,1.53
2019-05-10T15:29:27.883Z,0.90
2019-05-10T15:31:57.845Z,1.00
2019-05-10T15:34:27.145Z,1.30
2019-05-10T15:36:56.306Z,1.03
2019-05-10T15:39:28.988Z,0.80
2019-05-10T15:41:59.098Z,0.80
2019-05-10T15:44:31.288Z,1.10
2019-05-10T15:47:00.767Z,1.20
2019-05-10T15:49:30.653Z,1.07
2019-05-10T15:54:31.423Z,1.13
2019-05-10T15:57:01.330Z,1.10
2019-05-10T15:59:23.467Z,1.00
2019-05-10T15:59:31.263Z,1.00
2019-05-10T16:02:01.221Z,0.70
2019-05-10T16:04:31.159Z,1.00
2019-05-10T16:07:01.131Z,0.90
2019-05-10T16:09:30.421Z,0.80
2019-05-10T16:12:02.363Z,0.83
2019-05-10T16:14:33.011Z,1.03
2019-05-10T16:17:02.703Z,0.93
2019-05-10T16:19:32.646Z,0.80
2019-05-10T16:22:02.602Z,0.90
2019-05-10T16:24:32.479Z,1.30
2019-05-10T16:27:03.221Z,1.30
2019-05-10T16:29:39.696Z,1.10
2019-05-10T16:32:04.830Z,0.90
2019-05-10T16:34:34.766Z,0.77
2019-05-10T16:37:04.110Z,0.90
2019-05-10T16:39:33.934Z,0.73
2019-05-10T16:42:03.269Z,0.80
2019-05-10T16:44:33.025Z,0.70
2019-05-10T16:47:03.070Z,0.80
2019-05-10T16:49:33.083Z,0.70
2019-05-10T16:52:03.004Z,0.50
2019-05-10T16:54:33.043Z,0.70
2019-05-10T16:57:02.944Z,0.50
2019-05-10T16:59:35.164Z,0.80
2019-05-10T17:02:06.247Z,0.60
2019-05-10T17:04:37.383Z,0.80
2019-05-10T17:07:12.886Z,0.70
2019-05-10T17:09:39.777Z,0.80
2019-05-10T17:12:09.744Z,0.70
2019-05-10T17:14:39.666Z,1.10
2019-05-10T17:17:09.589Z,1.00
2019-05-10T17:19:38.827Z,0.70
2019-05-10T17:22:08.638Z,1.10
2019-05-10T17:24:38.589Z,1.03
2019-05-10T17:27:08.515Z,0.77
2019-05-10T17:29:38.514Z,0.70
2019-05-10T17:32:08.409Z,0.83
2019-05-10T17:34:38.292Z,0.80
2019-05-10T17:37:08.126Z,0.70
2019-05-10T17:39:37.464Z,0.83
2019-05-10T17:42:07.355Z,0.80
2019-05-10T17:44:36.701Z,1.10
2019-05-10T17:47:07.737Z,1.17
2019-05-10T17:49:37.351Z,0.90
2019-05-10T17:52:07.211Z,1.13
2019-05-10T17:54:39.339Z,0.97
2019-05-10T17:57:10.728Z,1.10
2019-05-10T17:59:39.630Z,0.83
2019-05-10T18:02:09.136Z,0.80
2019-05-10T18:04:38.970Z,1.30
2019-05-10T18:07:08.902Z,0.80
2019-05-10T18:09:38.833Z,1.13
2019-05-10T18:12:08.797Z,1.00
2019-05-10T18:14:39.524Z,0.97
2019-05-10T18:17:09.551Z,0.90
2019-05-10T18:19:39.709Z,1.00
2019-05-10T18:22:09.738Z,1.30
2019-05-10T18:24:42.287Z,0.93
2019-05-10T18:27:11.290Z,1.10
2019-05-10T18:29:41.270Z,1.37
2019-05-10T18:32:11.324Z,1.47
2019-05-10T18:34:41.403Z,1.30
2019-05-10T18:37:15.450Z,1.67
2019-05-10T18:39:42.226Z,1.97
2019-05-10T18:42:13.440Z,1.50
2019-05-10T18:44:45.932Z,1.30
2019-05-10T18:47:15.431Z,1.30
2019-05-10T18:49:45.475Z,1.67
2019-05-10T18:52:15.427Z,1.63
2019-05-10T18:54:45.439Z,1.50
2019-05-10T18:57:18.991Z,1.90
2019-05-10T18:59:47.418Z,1.80
2019-05-10T19:02:18.383Z,2.20
2019-05-10T19:04:51.946Z,1.77
2019-05-10T19:07:20.575Z,1.90
2019-05-10T19:09:50.593Z,2.07
2019-05-10T19:12:22.630Z,1.40
2019-05-10T19:14:52.069Z,1.70
2019-05-10T19:17:22.281Z,1.97
2019-05-10T19:19:52.301Z,1.80
2019-05-10T19:22:22.294Z,3.30
2019-05-10T19:24:51.959Z,3.33
2019-05-10T19:27:24.910Z,6.17
2019-05-10T19:29:53.097Z,4.90
2019-05-10T19:32:22.895Z,2.93
2019-05-10T19:34:57.185Z,2.43
2019-05-10T19:37:31.332Z,3.00
2019-05-10T19:39:56.037Z,2.90
2019-05-10T19:42:26.076Z,2.30
2019-05-10T19:44:56.006Z,4.40
2019-05-10T19:47:25.960Z,3.10
2019-05-10T19:49:56.008Z,3.17
2019-05-10T19:52:26.200Z,3.07
2019-05-10T19:54:56.825Z,2.83
2019-05-10T19:57:26.725Z,2.73
2019-05-10T19:59:56.833Z,2.57
2019-05-10T20:02:26.738Z,2.40
2019-05-10T20:04:58.788Z,2.80
2019-05-10T20:07:44.081Z,2.47
2019-05-10T20:10:00.341Z,2.90
2019-05-10T20:12:30.991Z,2.90
2019-05-10T20:15:00.930Z,2.60
2019-05-10T20:17:30.987Z,2.60
2019-05-10T20:20:00.953Z,3.07
2019-05-10T20:22:30.895Z,2.77
2019-05-10T20:25:00.188Z,2.77
2019-05-10T20:27:30.040Z,2.70
2019-05-10T20:30:00.546Z,2.27
2019-05-10T20:32:30.477Z,2.30
2019-05-10T20:35:00.738Z,2.60
2019-05-10T20:37:30.686Z,2.80
2019-05-10T20:40:00.638Z,2.70
2019-05-10T20:42:30.550Z,2.23
2019-05-10T20:45:07.537Z,2.73
2019-05-10T20:47:32.020Z,2.50
2019-05-10T20:50:01.966Z,2.50
2019-05-10T20:52:31.902Z,2.50
2019-05-10T20:55:02.306Z,3.03
2019-05-10T20:57:32.230Z,2.77
2019-05-10T21:00:02.161Z,3.33
2019-05-10T21:02:35.556Z,4.43
2019-05-10T21:05:05.939Z,2.73
2019-05-10T21:07:35.866Z,2.83
2019-05-10T21:10:06.208Z,3.00
2019-05-10T21:12:36.178Z,2.40
2019-05-10T21:15:06.806Z,2.80
2019-05-10T21:17:36.761Z,2.23
2019-05-10T21:20:06.093Z,2.40
2019-05-10T21:22:35.943Z,2.30
2019-05-10T21:25:06.289Z,2.70
2019-05-10T21:27:36.241Z,2.40
2019-05-10T21:30:06.706Z,2.50
2019-05-10T21:32:36.674Z,2.43
2019-05-10T21:35:05.978Z,2.30
2019-05-10T21:37:36.223Z,2.07
2019-05-10T21:40:06.954Z,1.73
2019-05-10T21:42:36.560Z,2.00
2019-05-10T21:45:06.713Z,2.40
2019-05-10T21:47:50.596Z,2.60
2019-05-10T21:50:08.708Z,2.30
2019-05-10T21:52:38.058Z,2.03
2019-05-10T21:55:07.310Z,1.50
2019-05-10T21:57:37.142Z,2.33
2019-05-10T22:00:07.545Z,2.20
2019-05-10T22:02:36.859Z,1.97
2019-05-10T22:05:06.308Z,2.00
2019-05-10T22:07:36.177Z,2.30
2019-05-10T22:10:07.791Z,2.10
2019-05-10T22:12:37.797Z,2.53
2019-05-10T22:15:07.225Z,2.17
2019-05-10T22:17:37.258Z,2.30
2019-05-10T22:20:07.986Z,1.83
2019-05-10T22:22:37.984Z,1.87
2019-05-10T22:25:07.935Z,2.07
2019-05-10T22:27:37.926Z,1.53
2019-05-10T22:30:07.393Z,1.80
2019-05-10T22:32:37.554Z,1.70
2019-05-10T22:35:08.094Z,2.23
2019-05-10T22:37:38.174Z,2.00
2019-05-10T22:40:07.529Z,1.83
2019-05-10T22:42:37.422Z,1.90
2019-05-10T22:45:06.860Z,2.03
2019-05-10T22:47:36.774Z,2.23
2019-05-10T22:50:06.263Z,1.77
2019-05-10T22:52:35.549Z,2.20
2019-05-10T22:55:04.833Z,1.90
2019-05-10T22:57:34.089Z,2.17
2019-05-10T23:00:03.340Z,2.00
2019-05-10T23:02:33.554Z,1.90
2019-05-10T23:05:03.497Z,1.77
2019-05-10T23:07:33.490Z,1.60
2019-05-10T23:10:03.542Z,1.73
2019-05-10T23:12:33.537Z,1.70
2019-05-10T23:15:02.910Z,1.60
2019-05-10T23:17:32.839Z,1.83
2019-05-10T23:20:02.826Z,1.80
2019-05-10T23:22:32.803Z,1.70
2019-05-10T23:25:02.755Z,1.57
2019-05-10T23:27:32.713Z,1.50
2019-05-10T23:30:02.712Z,1.70
2019-05-10T23:32:32.647Z,1.80
2019-05-10T23:35:02.666Z,1.77
2019-05-10T23:37:32.651Z,2.00
2019-05-10T23:40:02.625Z,1.70
2019-05-10T23:42:31.981Z,1.60
2019-05-10T23:45:01.867Z,1.37
2019-05-10T23:47:31.206Z,1.50
2019-05-10T23:50:01.094Z,1.40
2019-05-10T23:52:30.445Z,1.33
2019-05-10T23:55:00.359Z,1.43
2019-05-10T23:57:30.290Z,1.60
